sensor_id;sensor_type;location;lat;lon;timestamp;temperature;humidity
32728;DHT22;55292;51.844;19.246;2024-01-11T00:04:45;-7.00;99.90
32728;DHT22;55292;51.844;19.246;2024-01-11T00:09:48;-7.00;99.90
32728;DHT22;55292;51.844;19.246;2024-01-11T00:14:51;-6.80;99.90
32728;DHT22;55292;51.844;19.246;2024-01-11T00:19:54;-6.90;99.90
32728;DHT22;55292;51.844;19.246;2024-01-11T00:24:56;-6.80;99.90
32728;DHT22;55292;51.844;19.246;2024-01-11T00:29:59;-6.90;99.90
32728;DHT22;55292;51.844;19.246;2024-01-11T00:35:02;-7.10;99.90
32728;DHT22;55292;51.844;19.246;2024-01-11T00:40:05;-7.00;99.90
32728;DHT22;55292;51.844;19.246;2024-01-11T00:45:08;-6.80;99.90
32728;DHT22;55292;51.844;19.246;2024-01-11T00:50:11;-6.70;99.90
32728;DHT22;55292;51.844;19.246;2024-01-11T00:55:14;-6.70;99.90
32728;DHT22;55292;51.844;19.246;2024-01-11T01:00:18;-6.70;99.90
32728;DHT22;55292;51.844;19.246;2024-01-11T01:05:21;-6.60;99.90
32728;DHT22;55292;51.844;19.246;2024-01-11T01:10:24;-6.60;99.90
32728;DHT22;55292;51.844;19.246;2024-01-11T01:15:26;-6.50;99.90
32728;DHT22;55292;51.844;19.246;2024-01-11T01:20:29;-6.50;99.90
32728;DHT22;55292;51.844;19.246;2024-01-11T01:25:32;-6.50;99.90
32728;DHT22;55292;51.844;19.246;2024-01-11T01:30:37;-6.50;99.90
32728;DHT22;55292;51.844;19.246;2024-01-11T01:35:40;-6.40;99.90
32728;DHT22;55292;51.844;19.246;2024-01-11T01:45:46;-6.50;99.90
32728;DHT22;55292;51.844;19.246;2024-01-11T01:50:50;-6.60;99.90
32728;DHT22;55292;51.844;19.246;2024-01-11T01:55:53;-6.60;99.90
32728;DHT22;55292;51.844;19.246;2024-01-11T02:00:55;-6.60;99.90
32728;DHT22;55292;51.844;19.246;2024-01-11T02:06:00;-6.60;99.90
32728;DHT22;55292;51.844;19.246;2024-01-11T02:11:03;-6.70;99.90
32728;DHT22;55292;51.844;19.246;2024-01-11T02:16:06;-6.60;99.90
32728;DHT22;55292;51.844;19.246;2024-01-11T02:21:11;-6.60;99.90
32728;DHT22;55292;51.844;19.246;2024-01-11T02:26:16;-6.60;99.90
32728;DHT22;55292;51.844;19.246;2024-01-11T02:31:19;-6.60;99.90
32728;DHT22;55292;51.844;19.246;2024-01-11T02:36:22;-6.50;99.90
32728;DHT22;55292;51.844;19.246;2024-01-11T02:41:25;-6.50;99.90
32728;DHT22;55292;51.844;19.246;2024-01-11T02:46:30;-6.50;99.90
32728;DHT22;55292;51.844;19.246;2024-01-11T02:51:33;-6.50;99.90
32728;DHT22;55292;51.844;19.246;2024-01-11T02:56:35;-6.60;99.90
32728;DHT22;55292;51.844;19.246;2024-01-11T03:01:38;-6.60;99.90
32728;DHT22;55292;51.844;19.246;2024-01-11T03:06:41;-6.40;99.90
32728;DHT22;55292;51.844;19.246;2024-01-11T03:11:44;-6.30;99.90
32728;DHT22;55292;51.844;19.246;2024-01-11T03:16:46;-6.30;99.90
32728;DHT22;55292;51.844;19.246;2024-01-11T03:21:50;-6.40;99.90
32728;DHT22;55292;51.844;19.246;2024-01-11T03:26:52;-6.50;99.90
32728;DHT22;55292;51.844;19.246;2024-01-11T03:31:55;-6.20;99.90
32728;DHT22;55292;51.844;19.246;2024-01-11T03:36:58;-5.80;99.90
32728;DHT22;55292;51.844;19.246;2024-01-11T03:42:01;-5.50;99.90
32728;DHT22;55292;51.844;19.246;2024-01-11T03:47:05;-5.30;99.90
32728;DHT22;55292;51.844;19.246;2024-01-11T03:52:09;-5.10;99.90
32728;DHT22;55292;51.844;19.246;2024-01-11T03:57:11;-5.00;99.90
32728;DHT22;55292;51.844;19.246;2024-01-11T04:02:14;-5.20;99.90
32728;DHT22;55292;51.844;19.246;2024-01-11T04:07:17;-5.10;99.90
32728;DHT22;55292;51.844;19.246;2024-01-11T04:12:20;-4.90;99.90
32728;DHT22;55292;51.844;19.246;2024-01-11T04:17:22;-4.80;99.90
32728;DHT22;55292;51.844;19.246;2024-01-11T04:22:28;-5.10;99.90
32728;DHT22;55292;51.844;19.246;2024-01-11T04:27:30;-5.10;99.90
32728;DHT22;55292;51.844;19.246;2024-01-11T04:32:33;-5.10;99.90
32728;DHT22;55292;51.844;19.246;2024-01-11T04:37:36;-5.20;99.90
32728;DHT22;55292;51.844;19.246;2024-01-11T04:42:39;-5.30;99.90
32728;DHT22;55292;51.844;19.246;2024-01-11T04:47:41;-5.40;99.90
32728;DHT22;55292;51.844;19.246;2024-01-11T04:52:44;-5.70;99.90
32728;DHT22;55292;51.844;19.246;2024-01-11T04:57:47;-5.80;99.90
32728;DHT22;55292;51.844;19.246;2024-01-11T05:02:49;-5.90;99.90
32728;DHT22;55292;51.844;19.246;2024-01-11T05:07:52;-5.90;99.90
32728;DHT22;55292;51.844;19.246;2024-01-11T05:12:55;-5.90;99.90
32728;DHT22;55292;51.844;19.246;2024-01-11T05:17:58;-5.90;99.90
32728;DHT22;55292;51.844;19.246;2024-01-11T05:23:01;-5.80;99.90
32728;DHT22;55292;51.844;19.246;2024-01-11T05:28:04;-5.90;99.90
32728;DHT22;55292;51.844;19.246;2024-01-11T05:33:07;-3.00;99.90
32728;DHT22;55292;51.844;19.246;2024-01-11T05:38:10;-5.90;99.90
32728;DHT22;55292;51.844;19.246;2024-01-11T05:43:12;-5.90;99.90
32728;DHT22;55292;51.844;19.246;2024-01-11T05:48:16;-5.80;99.90
32728;DHT22;55292;51.844;19.246;2024-01-11T05:53:19;-5.80;99.90
32728;DHT22;55292;51.844;19.246;2024-01-11T05:58:23;-5.70;99.90
32728;DHT22;55292;51.844;19.246;2024-01-11T06:03:26;-5.60;99.90
32728;DHT22;55292;51.844;19.246;2024-01-11T06:08:30;-5.50;99.90
32728;DHT22;55292;51.844;19.246;2024-01-11T06:13:33;-5.40;99.90
32728;DHT22;55292;51.844;19.246;2024-01-11T06:18:36;-5.40;99.90
32728;DHT22;55292;51.844;19.246;2024-01-11T06:23:39;-5.40;99.90
32728;DHT22;55292;51.844;19.246;2024-01-11T06:28:42;-5.40;99.90
32728;DHT22;55292;51.844;19.246;2024-01-11T06:33:45;-5.40;99.90
32728;DHT22;55292;51.844;19.246;2024-01-11T06:38:53;-5.40;99.90
32728;DHT22;55292;51.844;19.246;2024-01-11T06:43:56;-5.40;99.90
32728;DHT22;55292;51.844;19.246;2024-01-11T06:49:02;-5.40;99.90
32728;DHT22;55292;51.844;19.246;2024-01-11T06:54:08;-5.40;99.90
32728;DHT22;55292;51.844;19.246;2024-01-11T06:59:10;-5.40;99.90
32728;DHT22;55292;51.844;19.246;2024-01-11T07:04:13;-5.50;99.90
32728;DHT22;55292;51.844;19.246;2024-01-11T07:09:16;-5.30;99.90
32728;DHT22;55292;51.844;19.246;2024-01-11T07:14:19;-5.10;99.90
32728;DHT22;55292;51.844;19.246;2024-01-11T07:19:22;-5.20;99.90
32728;DHT22;55292;51.844;19.246;2024-01-11T07:24:24;-5.20;99.90
32728;DHT22;55292;51.844;19.246;2024-01-11T07:29:27;-5.20;99.90
32728;DHT22;55292;51.844;19.246;2024-01-11T07:34:30;-5.10;99.90
32728;DHT22;55292;51.844;19.246;2024-01-11T07:39:33;-5.00;99.90
32728;DHT22;55292;51.844;19.246;2024-01-11T07:44:36;-4.60;99.90
32728;DHT22;55292;51.844;19.246;2024-01-11T07:49:39;-1.90;99.90
32728;DHT22;55292;51.844;19.246;2024-01-11T07:54:43;-4.90;99.90
32728;DHT22;55292;51.844;19.246;2024-01-11T07:59:46;-3.30;99.90
32728;DHT22;55292;51.844;19.246;2024-01-11T08:04:51;-3.80;99.90
32728;DHT22;55292;51.844;19.246;2024-01-11T08:09:55;-4.80;99.90
32728;DHT22;55292;51.844;19.246;2024-01-11T08:14:58;-4.80;99.90
32728;DHT22;55292;51.844;19.246;2024-01-11T08:20:00;-4.70;99.90
32728;DHT22;55292;51.844;19.246;2024-01-11T08:25:04;-4.70;99.90
32728;DHT22;55292;51.844;19.246;2024-01-11T08:30:07;-4.70;99.90
32728;DHT22;55292;51.844;19.246;2024-01-11T08:35:11;-4.60;99.90
32728;DHT22;55292;51.844;19.246;2024-01-11T08:40:15;-4.50;99.90
32728;DHT22;55292;51.844;19.246;2024-01-11T08:45:18;-4.50;99.90
32728;DHT22;55292;51.844;19.246;2024-01-11T08:50:21;-4.30;99.90
32728;DHT22;55292;51.844;19.246;2024-01-11T08:55:26;-4.30;99.90
32728;DHT22;55292;51.844;19.246;2024-01-11T09:00:29;-4.10;99.90
32728;DHT22;55292;51.844;19.246;2024-01-11T09:05:32;-4.20;99.90
32728;DHT22;55292;51.844;19.246;2024-01-11T09:10:35;-4.10;99.90
32728;DHT22;55292;51.844;19.246;2024-01-11T09:15:38;-4.10;99.90
32728;DHT22;55292;51.844;19.246;2024-01-11T09:20:40;-3.90;99.90
32728;DHT22;55292;51.844;19.246;2024-01-11T09:25:43;-1.80;99.90
32728;DHT22;55292;51.844;19.246;2024-01-11T09:30:46;-3.90;99.90
32728;DHT22;55292;51.844;19.246;2024-01-11T09:35:49;-3.80;99.90
32728;DHT22;55292;51.844;19.246;2024-01-11T09:41:12;-3.90;99.90
32728;DHT22;55292;51.844;19.246;2024-01-11T09:46:16;-3.90;99.90
32728;DHT22;55292;51.844;19.246;2024-01-11T09:51:19;-3.70;99.90
32728;DHT22;55292;51.844;19.246;2024-01-11T09:56:22;-3.80;99.90
32728;DHT22;55292;51.844;19.246;2024-01-11T10:01:26;-3.70;99.90
32728;DHT22;55292;51.844;19.246;2024-01-11T10:06:32;-3.60;99.90
32728;DHT22;55292;51.844;19.246;2024-01-11T10:11:37;-3.70;99.90
32728;DHT22;55292;51.844;19.246;2024-01-11T10:16:41;-3.50;99.90
32728;DHT22;55292;51.844;19.246;2024-01-11T10:21:45;-3.60;99.90
32728;DHT22;55292;51.844;19.246;2024-01-11T10:26:49;-3.60;99.90
32728;DHT22;55292;51.844;19.246;2024-01-11T10:31:53;-3.50;99.90
32728;DHT22;55292;51.844;19.246;2024-01-11T10:36:56;-1.60;99.90
32728;DHT22;55292;51.844;19.246;2024-01-11T10:42:09;-3.40;99.90
32728;DHT22;55292;51.844;19.246;2024-01-11T10:47:14;-3.40;99.90
32728;DHT22;55292;51.844;19.246;2024-01-11T10:52:20;-3.30;99.90
32728;DHT22;55292;51.844;19.246;2024-01-11T10:57:25;-3.40;99.90
32728;DHT22;55292;51.844;19.246;2024-01-11T11:02:28;-3.30;99.90
32728;DHT22;55292;51.844;19.246;2024-01-11T11:07:34;-3.40;99.90
32728;DHT22;55292;51.844;19.246;2024-01-11T11:12:37;-2.10;99.90
32728;DHT22;55292;51.844;19.246;2024-01-11T11:17:42;-3.20;99.90
32728;DHT22;55292;51.844;19.246;2024-01-11T11:23:06;-3.00;99.90
32728;DHT22;55292;51.844;19.246;2024-01-11T11:28:11;-3.10;99.90
32728;DHT22;55292;51.844;19.246;2024-01-11T11:33:25;-3.10;99.90
32728;DHT22;55292;51.844;19.246;2024-01-11T11:38:30;-3.00;99.90
32728;DHT22;55292;51.844;19.246;2024-01-11T11:43:34;-2.90;99.90
32728;DHT22;55292;51.844;19.246;2024-01-11T11:53:46;-2.70;99.90
32728;DHT22;55292;51.844;19.246;2024-01-11T11:58:50;-2.00;99.90
32728;DHT22;55292;51.844;19.246;2024-01-11T12:03:55;-2.70;99.90
32728;DHT22;55292;51.844;19.246;2024-01-11T12:08:58;-1.00;99.90
32728;DHT22;55292;51.844;19.246;2024-01-11T12:14:01;-2.30;99.90
32728;DHT22;55292;51.844;19.246;2024-01-11T12:19:06;-0.90;99.90
32728;DHT22;55292;51.844;19.246;2024-01-11T12:24:09;-1.30;99.90
32728;DHT22;55292;51.844;19.246;2024-01-11T12:29:13;-2.60;99.90
32728;DHT22;55292;51.844;19.246;2024-01-11T12:34:16;-2.40;99.90
32728;DHT22;55292;51.844;19.246;2024-01-11T12:39:19;-2.40;99.90
32728;DHT22;55292;51.844;19.246;2024-01-11T12:44:24;-2.40;99.90
32728;DHT22;55292;51.844;19.246;2024-01-11T12:49:28;-2.50;99.90
32728;DHT22;55292;51.844;19.246;2024-01-11T12:54:32;-2.00;99.90
32728;DHT22;55292;51.844;19.246;2024-01-11T12:59:35;-2.40;99.90
32728;DHT22;55292;51.844;19.246;2024-01-11T13:04:38;0.00;99.90
32728;DHT22;55292;51.844;19.246;2024-01-11T13:09:41;-2.50;99.90
32728;DHT22;55292;51.844;19.246;2024-01-11T13:14:45;-2.40;99.90
32728;DHT22;55292;51.844;19.246;2024-01-11T13:19:48;-2.40;99.90
32728;DHT22;55292;51.844;19.246;2024-01-11T13:24:51;-2.30;99.90
32728;DHT22;55292;51.844;19.246;2024-01-11T13:29:53;-2.30;99.90
32728;DHT22;55292;51.844;19.246;2024-01-11T13:34:56;-2.30;99.90
32728;DHT22;55292;51.844;19.246;2024-01-11T13:40:01;-2.20;99.90
32728;DHT22;55292;51.844;19.246;2024-01-11T13:45:04;-2.20;99.90
32728;DHT22;55292;51.844;19.246;2024-01-11T13:50:09;-2.10;99.90
32728;DHT22;55292;51.844;19.246;2024-01-11T13:55:12;-0.60;99.90
32728;DHT22;55292;51.844;19.246;2024-01-11T14:00:16;-2.00;99.90
32728;DHT22;55292;51.844;19.246;2024-01-11T14:05:21;-2.00;99.90
32728;DHT22;55292;51.844;19.246;2024-01-11T14:10:24;-2.00;99.90
32728;DHT22;55292;51.844;19.246;2024-01-11T14:15:29;-1.80;99.90
32728;DHT22;55292;51.844;19.246;2024-01-11T14:20:31;-1.90;99.90
32728;DHT22;55292;51.844;19.246;2024-01-11T14:25:36;-1.90;99.90
32728;DHT22;55292;51.844;19.246;2024-01-11T14:30:39;-1.80;99.90
32728;DHT22;55292;51.844;19.246;2024-01-11T14:35:42;-1.80;99.90
32728;DHT22;55292;51.844;19.246;2024-01-11T14:40:45;0.50;99.90
32728;DHT22;55292;51.844;19.246;2024-01-11T14:45:48;-1.70;99.90
32728;DHT22;55292;51.844;19.246;2024-01-11T14:50:53;-1.70;99.90
32728;DHT22;55292;51.844;19.246;2024-01-11T14:55:56;-1.70;99.90
32728;DHT22;55292;51.844;19.246;2024-01-11T15:01:00;-1.60;99.90
32728;DHT22;55292;51.844;19.246;2024-01-11T15:06:04;-1.50;99.90
32728;DHT22;55292;51.844;19.246;2024-01-11T15:11:08;-1.60;99.90
32728;DHT22;55292;51.844;19.246;2024-01-11T15:16:10;-1.60;99.90
32728;DHT22;55292;51.844;19.246;2024-01-11T15:21:13;-1.60;99.90
32728;DHT22;55292;51.844;19.246;2024-01-11T15:26:21;-1.50;99.90
32728;DHT22;55292;51.844;19.246;2024-01-11T15:31:23;-1.50;99.90
32728;DHT22;55292;51.844;19.246;2024-01-11T15:36:28;-1.40;99.90
32728;DHT22;55292;51.844;19.246;2024-01-11T15:41:31;-1.40;99.90
32728;DHT22;55292;51.844;19.246;2024-01-11T15:46:33;-1.40;99.90
32728;DHT22;55292;51.844;19.246;2024-01-11T15:51:37;-1.40;99.90
32728;DHT22;55292;51.844;19.246;2024-01-11T15:56:40;-1.40;99.90
32728;DHT22;55292;51.844;19.246;2024-01-11T16:01:43;-1.30;99.90
32728;DHT22;55292;51.844;19.246;2024-01-11T16:07:02;-0.10;99.90
32728;DHT22;55292;51.844;19.246;2024-01-11T16:12:06;-1.30;99.90
32728;DHT22;55292;51.844;19.246;2024-01-11T16:17:09;-1.30;99.90
32728;DHT22;55292;51.844;19.246;2024-01-11T16:22:12;-1.20;99.90
32728;DHT22;55292;51.844;19.246;2024-01-11T16:27:15;-1.20;99.90
32728;DHT22;55292;51.844;19.246;2024-01-11T16:32:17;-1.20;99.90
32728;DHT22;55292;51.844;19.246;2024-01-11T16:37:20;-1.20;99.90
32728;DHT22;55292;51.844;19.246;2024-01-11T16:42:24;-1.10;99.90
32728;DHT22;55292;51.844;19.246;2024-01-11T16:47:29;-1.10;99.90
32728;DHT22;55292;51.844;19.246;2024-01-11T16:52:38;-1.00;99.90
32728;DHT22;55292;51.844;19.246;2024-01-11T16:57:41;-0.90;99.90
32728;DHT22;55292;51.844;19.246;2024-01-11T17:02:44;-1.00;99.90
32728;DHT22;55292;51.844;19.246;2024-01-11T17:07:49;-1.00;99.90
32728;DHT22;55292;51.844;19.246;2024-01-11T17:12:53;0.60;99.90
32728;DHT22;55292;51.844;19.246;2024-01-11T17:17:56;-0.90;99.90
32728;DHT22;55292;51.844;19.246;2024-01-11T17:22:59;-0.80;99.90
32728;DHT22;55292;51.844;19.246;2024-01-11T17:28:01;-0.80;99.90
32728;DHT22;55292;51.844;19.246;2024-01-11T17:33:05;-0.80;99.90
32728;DHT22;55292;51.844;19.246;2024-01-11T17:38:08;-0.70;99.90
32728;DHT22;55292;51.844;19.246;2024-01-11T17:43:11;-0.70;99.90
32728;DHT22;55292;51.844;19.246;2024-01-11T17:48:14;1.10;99.90
32728;DHT22;55292;51.844;19.246;2024-01-11T17:53:19;-0.80;99.90
32728;DHT22;55292;51.844;19.246;2024-01-11T17:58:21;-0.50;99.90
32728;DHT22;55292;51.844;19.246;2024-01-11T18:03:26;-0.50;99.90
32728;DHT22;55292;51.844;19.246;2024-01-11T18:08:29;-0.50;99.90
32728;DHT22;55292;51.844;19.246;2024-01-11T18:13:35;-0.30;99.90
32728;DHT22;55292;51.844;19.246;2024-01-11T18:18:38;-0.30;99.90
32728;DHT22;55292;51.844;19.246;2024-01-11T18:23:41;-0.30;99.90
32728;DHT22;55292;51.844;19.246;2024-01-11T18:28:45;-0.20;99.90
32728;DHT22;55292;51.844;19.246;2024-01-11T18:33:48;-1.40;99.90
32728;DHT22;55292;51.844;19.246;2024-01-11T18:38:54;-0.20;99.90
32728;DHT22;55292;51.844;19.246;2024-01-11T18:44:00;-0.10;99.90
32728;DHT22;55292;51.844;19.246;2024-01-11T18:49:02;-0.10;99.90
32728;DHT22;55292;51.844;19.246;2024-01-11T18:54:05;0.00;99.90
32728;DHT22;55292;51.844;19.246;2024-01-11T18:59:08;0.10;99.90
32728;DHT22;55292;51.844;19.246;2024-01-11T19:04:11;0.10;99.90
32728;DHT22;55292;51.844;19.246;2024-01-11T19:09:14;0.20;99.90
32728;DHT22;55292;51.844;19.246;2024-01-11T19:14:17;0.30;99.90
32728;DHT22;55292;51.844;19.246;2024-01-11T19:19:20;0.30;99.90
32728;DHT22;55292;51.844;19.246;2024-01-11T19:24:23;0.40;99.90
32728;DHT22;55292;51.844;19.246;2024-01-11T19:29:26;0.40;99.90
32728;DHT22;55292;51.844;19.246;2024-01-11T19:34:31;0.50;99.90
32728;DHT22;55292;51.844;19.246;2024-01-11T19:39:34;0.50;99.90
32728;DHT22;55292;51.844;19.246;2024-01-11T19:44:37;0.50;99.90
32728;DHT22;55292;51.844;19.246;2024-01-11T19:49:40;0.50;99.90
32728;DHT22;55292;51.844;19.246;2024-01-11T19:54:42;0.50;99.90
32728;DHT22;55292;51.844;19.246;2024-01-11T19:59:47;0.50;99.90
32728;DHT22;55292;51.844;19.246;2024-01-11T20:04:49;0.60;99.90
32728;DHT22;55292;51.844;19.246;2024-01-11T20:09:54;0.60;99.90
32728;DHT22;55292;51.844;19.246;2024-01-11T20:14:56;0.50;99.90
32728;DHT22;55292;51.844;19.246;2024-01-11T20:19:59;0.50;99.90
32728;DHT22;55292;51.844;19.246;2024-01-11T20:25:02;0.50;99.90
32728;DHT22;55292;51.844;19.246;2024-01-11T20:30:05;0.60;99.90
32728;DHT22;55292;51.844;19.246;2024-01-11T20:35:14;0.60;99.90
32728;DHT22;55292;51.844;19.246;2024-01-11T20:40:16;0.50;99.90
32728;DHT22;55292;51.844;19.246;2024-01-11T20:45:20;0.50;99.90
32728;DHT22;55292;51.844;19.246;2024-01-11T20:50:23;0.40;99.90
32728;DHT22;55292;51.844;19.246;2024-01-11T20:55:25;0.40;99.90
32728;DHT22;55292;51.844;19.246;2024-01-11T21:00:28;0.40;99.90
32728;DHT22;55292;51.844;19.246;2024-01-11T21:05:31;0.30;99.90
32728;DHT22;55292;51.844;19.246;2024-01-11T21:10:34;0.20;99.90
32728;DHT22;55292;51.844;19.246;2024-01-11T21:15:36;-0.40;99.90
32728;DHT22;55292;51.844;19.246;2024-01-11T21:20:40;-0.50;99.90
32728;DHT22;55292;51.844;19.246;2024-01-11T21:25:43;-0.70;99.90
32728;DHT22;55292;51.844;19.246;2024-01-11T21:30:46;-1.20;99.90
32728;DHT22;55292;51.844;19.246;2024-01-11T21:35:48;-1.10;99.90
32728;DHT22;55292;51.844;19.246;2024-01-11T21:40:51;-1.40;99.90
32728;DHT22;55292;51.844;19.246;2024-01-11T21:45:54;-0.20;99.90
32728;DHT22;55292;51.844;19.246;2024-01-11T21:50:57;-1.50;99.90
32728;DHT22;55292;51.844;19.246;2024-01-11T21:56:02;-1.80;99.90
32728;DHT22;55292;51.844;19.246;2024-01-11T22:01:05;-1.70;99.90
32728;DHT22;55292;51.844;19.246;2024-01-11T22:06:11;-1.60;99.90
32728;DHT22;55292;51.844;19.246;2024-01-11T22:11:14;-1.50;99.90
32728;DHT22;55292;51.844;19.246;2024-01-11T22:16:18;-1.90;99.90
32728;DHT22;55292;51.844;19.246;2024-01-11T22:21:22;-1.80;99.90
32728;DHT22;55292;51.844;19.246;2024-01-11T22:26:24;-1.70;99.90
32728;DHT22;55292;51.844;19.246;2024-01-11T22:31:34;-1.60;99.90
32728;DHT22;55292;51.844;19.246;2024-01-11T22:36:37;-1.60;99.90
32728;DHT22;55292;51.844;19.246;2024-01-11T22:41:40;-1.40;99.90
32728;DHT22;55292;51.844;19.246;2024-01-11T22:46:44;-1.20;99.90
32728;DHT22;55292;51.844;19.246;2024-01-11T22:56:50;-1.00;99.90
32728;DHT22;55292;51.844;19.246;2024-01-11T23:01:57;0.10;99.90
32728;DHT22;55292;51.844;19.246;2024-01-11T23:07:00;-0.80;99.90
32728;DHT22;55292;51.844;19.246;2024-01-11T23:12:03;-0.70;99.90
32728;DHT22;55292;51.844;19.246;2024-01-11T23:17:08;-0.70;99.90
32728;DHT22;55292;51.844;19.246;2024-01-11T23:22:11;-0.90;99.90
32728;DHT22;55292;51.844;19.246;2024-01-11T23:27:16;-0.70;99.90
32728;DHT22;55292;51.844;19.246;2024-01-11T23:32:19;-0.60;99.90
32728;DHT22;55292;51.844;19.246;2024-01-11T23:37:22;0.00;99.90
32728;DHT22;55292;51.844;19.246;2024-01-11T23:42:25;-0.60;99.90
32728;DHT22;55292;51.844;19.246;2024-01-11T23:47:28;-0.60;99.90
32728;DHT22;55292;51.844;19.246;2024-01-11T23:52:34;-0.60;99.90
32728;DHT22;55292;51.844;19.246;2024-01-11T23:57:38;-0.70;99.90
